Terminal Aerodrome Forecast
Issued by NWS

Home | Current Version | Previous Version | Text Only | Print | Product List | Glossary On
Versions: 1 2 3 4 5 6 7 8 9 10 11 12 13 14 15 16
000
FTUS46 KSGX 301130
TAFSNA
TAF
KSNA 301130Z 3012/3112 VRB03KT 4SM BR OVC007
     FM301500 VRB03KT 6SM HZ BKN010
     FM301700 VRB04KT P6SM FEW010
     FM302000 23008KT P6SM FEW015
     FM310200 VRB04KT P6SM SCT012
     FM310900 20003KT P6SM OVC007=

USA.gov is the U.S. government's official web portal to all federal, state and local government web resources and services.